Time;durP1;ratioP1;P1;durP2;ratioP2;P2;SDS_P1;SDS_P2;PMS_P1;PMS_P2;Temp;Humidity;BMP_temperature;BMP_pressure;BME280_temperature;BME280_humidity;BME280_pressure;Samples;Min_cycle;Max_cycle;Signal;HPM_P1;HPM_P2
2022/12/23 00:02:21;;;;;;;4.90;2.30;;;10.10;99.90;;;;;;5111936;28;20190;-87
2022/12/23 00:04:46;;;;;;;2.60;1.83;;;10.10;99.90;;;;;;5109516;28;20282;-85
2022/12/23 00:07:12;;;;;;;6.33;2.20;;;10.20;99.90;;;;;;5106625;28;20218;-88
2022/12/23 00:09:38;;;;;;;2.40;1.70;;;10.20;99.90;;;;;;5113628;28;20199;-84
2022/12/23 00:15:06;;;;;;;2.53;1.90;;;10.30;99.90;;;;;;5113163;28;20181;-87
2022/12/23 00:17:36;;;;;;;4.87;2.10;;;10.20;99.90;;;;;;5113368;28;20194;-85
2022/12/23 00:20:04;;;;;;;4.40;2.00;;;10.30;99.90;;;;;;5113958;28;20206;-88
2022/12/23 00:25:15;;;;;;;4.17;2.10;;;10.40;99.90;;;;;;5116682;28;20209;-84
2022/12/23 00:27:41;;;;;;;2.43;1.70;;;10.60;99.90;;;;;;5116313;28;20272;-86
2022/12/23 00:30:08;;;;;;;3.00;1.80;;;10.60;99.90;;;;;;5114968;28;20202;-88
2022/12/23 00:32:34;;;;;;;3.63;1.73;;;10.50;99.90;;;;;;5102782;28;20187;-86
2022/12/23 00:35:00;;;;;;;4.40;1.80;;;10.50;99.90;;;;;;5113452;28;20206;-82
2022/12/23 00:37:28;;;;;;;1.70;1.60;;;10.40;99.90;;;;;;5114969;28;20182;-89
2022/12/23 00:42:54;;;;;;;3.93;1.73;;;10.50;99.90;;;;;;5108583;28;20190;-88
2022/12/23 00:45:20;;;;;;;1.63;1.53;;;10.60;99.90;;;;;;5113579;28;20171;-84
2022/12/23 00:50:34;;;;;;;1.63;1.53;;;10.80;99.90;;;;;;5111382;28;20209;-88
2022/12/23 00:53:00;;;;;;;2.30;1.80;;;10.80;99.90;;;;;;5107275;28;20191;-85
2022/12/23 00:55:26;;;;;;;2.70;1.70;;;10.80;99.90;;;;;;5112754;28;20266;-84
2022/12/23 00:57:51;;;;;;;5.00;1.83;;;10.80;99.90;;;;;;5113181;28;20190;-86
2022/12/23 01:00:18;;;;;;;2.10;1.60;;;10.80;99.90;;;;;;5108876;28;20258;-86
2022/12/23 01:05:36;;;;;;;1.57;1.47;;;10.90;99.90;;;;;;5110073;28;20204;-86
2022/12/23 01:08:08;;;;;;;2.47;1.80;;;10.90;99.90;;;;;;5112146;28;20285;-88
2022/12/23 01:10:35;;;;;;;1.67;1.57;;;10.90;99.90;;;;;;5111688;28;20193;-88
2022/12/23 01:13:01;;;;;;;2.27;1.80;;;11.00;99.90;;;;;;5111555;28;20187;-83
2022/12/23 01:15:27;;;;;;;1.67;1.57;;;10.90;99.90;;;;;;5112281;28;20220;-87
2022/12/23 01:17:52;;;;;;;2.53;1.63;;;10.90;99.90;;;;;;5107312;28;20201;-86
2022/12/23 01:20:18;;;;;;;1.77;1.67;;;11.00;99.90;;;;;;5112176;28;20280;-88
2022/12/23 01:22:44;;;;;;;1.50;1.40;;;11.10;99.90;;;;;;5107956;28;20263;-83
2022/12/23 01:25:09;;;;;;;1.70;1.60;;;11.00;99.90;;;;;;5111361;28;20189;-87
2022/12/23 01:27:35;;;;;;;1.60;1.50;;;11.00;99.90;;;;;;5111234;28;20264;-84
2022/12/23 01:30:01;;;;;;;2.60;1.73;;;11.00;99.90;;;;;;5110381;28;20207;-86
2022/12/23 01:32:27;;;;;;;4.47;1.60;;;11.00;99.90;;;;;;5110432;28;20190;-84
2022/12/23 01:34:52;;;;;;;3.87;1.70;;;11.10;99.90;;;;;;5112072;28;20265;-83
2022/12/23 01:37:18;;;;;;;1.97;1.83;;;11.20;99.90;;;;;;5110621;28;20187;-84
2022/12/23 01:39:44;;;;;;;1.70;1.60;;;11.10;99.90;;;;;;5112904;28;20207;-89
2022/12/23 01:42:46;;;;;;;1.80;1.57;;;11.10;99.90;;;;;;5111504;28;20239;-87
2022/12/23 01:45:15;;;;;;;2.73;1.77;;;11.20;99.90;;;;;;5105907;28;20195;-88
2022/12/23 01:47:47;;;;;;;2.30;1.70;;;11.10;99.90;;;;;;5112659;28;20210;-83
2022/12/23 01:50:31;;;;;;;1.60;1.50;;;11.10;99.90;;;;;;5109001;28;20202;-84
2022/12/23 01:53:02;;;;;;;1.77;1.67;;;11.10;99.90;;;;;;5106252;28;20205;-86
2022/12/23 01:55:31;;;;;;;1.60;1.50;;;11.10;99.90;;;;;;5102227;28;20278;-85
2022/12/23 01:58:05;;;;;;;2.43;1.50;;;11.20;99.90;;;;;;5105750;28;20283;-84
2022/12/23 02:09:15;;;;;;;1.50;1.40;;;11.20;99.90;;;;;;5108423;28;20181;-89
2022/12/23 02:11:56;;;;;;;1.70;1.60;;;11.30;99.90;;;;;;5107241;28;20222;-85
2022/12/23 02:18:02;;;;;;;1.47;1.40;;;11.40;99.90;;;;;;5107250;28;20194;-87
2022/12/23 02:20:42;;;;;;;2.60;1.60;;;11.50;99.90;;;;;;5106094;28;20264;-88
2022/12/23 02:23:56;;;;;;;1.83;1.40;;;11.40;99.90;;;;;;5088382;28;20258;-85
2022/12/23 02:26:49;;;;;;;1.67;1.40;;;11.40;99.90;;;;;;5109802;28;20195;-87
2022/12/23 02:29:18;;;;;;;2.70;1.60;;;11.40;99.90;;;;;;5107766;28;20232;-86
2022/12/23 02:32:02;;;;;;;1.50;1.40;;;11.50;99.90;;;;;;5108958;28;20240;-89
2022/12/23 02:34:36;;;;;;;3.67;1.60;;;11.50;99.90;;;;;;5107618;28;20181;-85
2022/12/23 02:37:02;;;;;;;1.73;1.47;;;11.40;99.90;;;;;;5089349;28;20190;-86
2022/12/23 02:39:38;;;;;;;1.87;1.40;;;11.40;99.90;;;;;;5108905;28;20203;-86
2022/12/23 02:42:14;;;;;;;1.40;1.40;;;11.40;99.90;;;;;;5101775;28;20200;-85
2022/12/23 02:44:57;;;;;;;2.27;1.57;;;11.30;99.90;;;;;;5107353;28;20191;-84
2022/12/23 02:47:49;;;;;;;2.33;1.73;;;11.30;99.90;;;;;;5105808;28;20215;-83
2022/12/23 02:50:24;;;;;;;1.60;1.50;;;11.30;99.90;;;;;;5091817;28;20281;-86
2022/12/23 02:52:52;;;;;;;1.50;1.40;;;11.30;99.90;;;;;;5109211;28;20188;-86
2022/12/23 02:55:30;;;;;;;1.50;1.40;;;11.30;99.90;;;;;;5108026;28;20211;-86
2022/12/23 02:57:59;;;;;;;2.10;1.40;;;11.40;99.90;;;;;;5104067;28;20200;-87
2022/12/23 03:00:24;;;;;;;1.60;1.50;;;11.40;99.90;;;;;;5107385;28;20228;-87
2022/12/23 03:02:50;;;;;;;1.57;1.47;;;11.30;99.90;;;;;;5107620;28;20246;-87
2022/12/23 03:05:37;;;;;;;1.97;1.67;;;11.40;99.90;;;;;;5108812;28;20195;-84
2022/12/23 03:08:09;;;;;;;1.50;1.40;;;11.40;99.90;;;;;;5105127;28;20199;-86
2022/12/23 03:11:04;;;;;;;1.40;1.40;;;11.30;99.90;;;;;;5103196;28;20181;-89
2022/12/23 03:13:39;;;;;;;1.53;1.43;;;11.40;99.90;;;;;;5105715;28;20584;-86
2022/12/23 03:16:32;;;;;;;1.43;1.37;;;11.40;99.90;;;;;;5088546;28;20188;-86
2022/12/23 03:19:07;;;;;;;2.13;1.50;;;11.40;99.90;;;;;;5110395;28;20283;-86
2022/12/23 03:21:39;;;;;;;1.43;1.23;;;11.30;99.90;;;;;;5111074;28;20214;-85
2022/12/23 03:24:31;;;;;;;3.23;1.80;;;11.40;99.90;;;;;;5103863;28;20180;-85
2022/12/23 03:27:02;;;;;;;1.37;1.33;;;11.40;99.90;;;;;;5108557;28;20231;-83
2022/12/23 03:29:52;;;;;;;1.50;1.40;;;11.40;99.90;;;;;;5105955;28;20216;-89
2022/12/23 03:32:20;;;;;;;1.20;1.20;;;11.40;99.90;;;;;;5105286;28;20722;-86
2022/12/23 03:34:49;;;;;;;1.50;1.40;;;11.40;99.90;;;;;;5106051;28;20171;-87
2022/12/23 03:37:18;;;;;;;1.43;1.40;;;11.40;99.90;;;;;;5108673;28;20220;-87
2022/12/23 03:39:53;;;;;;;1.50;1.47;;;11.40;99.90;;;;;;5108819;28;20212;-88
2022/12/23 03:42:26;;;;;;;1.77;1.67;;;11.50;99.90;;;;;;5103233;28;20183;-86
2022/12/23 03:44:53;;;;;;;1.70;1.60;;;11.50;99.90;;;;;;5107965;28;20210;-87
2022/12/23 03:47:23;;;;;;;1.50;1.50;;;11.50;99.90;;;;;;5107636;28;20241;-85
2022/12/23 03:49:55;;;;;;;1.57;1.47;;;11.50;99.90;;;;;;5108076;28;20272;-86
2022/12/23 03:52:26;;;;;;;1.60;1.50;;;11.50;99.90;;;;;;5105986;28;20192;-83
2022/12/23 03:54:54;;;;;;;2.63;1.50;;;11.50;99.90;;;;;;5108634;28;20616;-86
2022/12/23 03:57:50;;;;;;;1.33;1.33;;;11.60;99.90;;;;;;5108343;28;20185;-85
2022/12/23 04:00:16;;;;;;;1.90;1.50;;;11.50;99.90;;;;;;5104272;28;20226;-85
2022/12/23 04:02:52;;;;;;;1.50;1.40;;;11.50;99.90;;;;;;5107442;28;20289;-86
2022/12/23 04:05:23;;;;;;;1.30;1.30;;;11.60;99.90;;;;;;5106218;28;20195;-87
2022/12/23 04:08:15;;;;;;;1.70;1.60;;;11.60;99.90;;;;;;5107307;28;20211;-85
2022/12/23 04:10:41;;;;;;;2.27;1.60;;;11.60;99.90;;;;;;5105549;28;20260;-89
2022/12/23 04:13:07;;;;;;;1.50;1.50;;;11.70;99.90;;;;;;5105672;28;20185;-88
2022/12/23 04:15:37;;;;;;;1.60;1.50;;;11.70;99.90;;;;;;5109000;28;20241;-82
2022/12/23 04:18:02;;;;;;;1.50;1.50;;;11.70;99.90;;;;;;5103787;28;20407;-87
2022/12/23 04:20:28;;;;;;;1.60;1.50;;;11.70;99.90;;;;;;5109427;28;20217;-87
2022/12/23 04:22:53;;;;;;;1.80;1.40;;;11.80;99.90;;;;;;5108793;28;20594;-89
2022/12/23 04:25:19;;;;;;;1.30;1.30;;;11.80;99.90;;;;;;5108371;28;20176;-85
2022/12/23 04:27:45;;;;;;;2.10;1.50;;;11.80;99.90;;;;;;5110727;28;20225;-87
2022/12/23 04:30:12;;;;;;;1.30;1.30;;;11.80;99.90;;;;;;5112437;28;20308;-86
2022/12/23 04:32:38;;;;;;;1.80;1.70;;;11.90;99.90;;;;;;5110525;28;20256;-89
2022/12/23 04:35:04;;;;;;;2.00;1.50;;;12.00;99.90;;;;;;5112245;28;20194;-88
2022/12/23 04:37:30;;;;;;;1.60;1.50;;;12.00;99.90;;;;;;5111656;28;20202;-89
2022/12/23 04:39:55;;;;;;;1.37;1.37;;;12.00;99.90;;;;;;5100426;28;20242;-87
2022/12/23 04:42:21;;;;;;;1.53;1.50;;;11.90;99.90;;;;;;5111780;28;20206;-87
2022/12/23 04:44:47;;;;;;;1.50;1.40;;;11.90;99.90;;;;;;5108365;28;20193;-86
2022/12/23 04:47:12;;;;;;;1.57;1.47;;;11.80;99.90;;;;;;5108400;28;20233;-85
2022/12/23 04:49:38;;;;;;;1.57;1.50;;;11.80;99.90;;;;;;5105392;28;20217;-86
2022/12/23 04:52:04;;;;;;;2.00;1.50;;;11.80;99.90;;;;;;5112004;28;20193;-87
2022/12/23 04:54:29;;;;;;;3.80;1.70;;;11.80;99.90;;;;;;5111066;28;20178;-85
2022/12/23 04:56:55;;;;;;;1.60;1.50;;;11.90;99.90;;;;;;5115411;28;20238;-90
2022/12/23 04:59:21;;;;;;;1.73;1.63;;;11.90;99.90;;;;;;5111617;28;20274;-87
2022/12/23 05:01:46;;;;;;;1.60;1.50;;;11.90;99.90;;;;;;5108961;28;20190;-86
2022/12/23 05:04:12;;;;;;;1.60;1.50;;;11.80;99.90;;;;;;5100268;28;20501;-85
2022/12/23 05:06:38;;;;;;;1.43;1.40;;;11.80;99.90;;;;;;5105359;28;20288;-85
2022/12/23 05:09:04;;;;;;;1.83;1.50;;;11.70;99.90;;;;;;5099427;28;20216;-85
2022/12/23 05:11:30;;;;;;;1.70;1.60;;;11.70;99.90;;;;;;5103198;28;20686;-87
2022/12/23 05:13:56;;;;;;;1.73;1.43;;;11.70;99.90;;;;;;5110737;28;20179;-85
2022/12/23 05:16:21;;;;;;;1.80;1.70;;;11.80;99.90;;;;;;5107392;28;20193;-86
2022/12/23 05:18:47;;;;;;;1.57;1.47;;;11.80;99.90;;;;;;5102906;28;20223;-86
2022/12/23 05:21:13;;;;;;;1.50;1.40;;;11.70;99.90;;;;;;5102197;28;20202;-84
2022/12/23 05:23:39;;;;;;;1.40;1.40;;;11.70;99.90;;;;;;5107124;28;20261;-85
2022/12/23 05:26:05;;;;;;;1.63;1.50;;;11.70;99.90;;;;;;5106715;28;20194;-85
2022/12/23 05:28:30;;;;;;;1.70;1.60;;;11.70;99.90;;;;;;5105919;28;20218;-85
2022/12/23 05:31:04;;;;;;;1.60;1.50;;;11.70;99.90;;;;;;5104609;28;20595;-87
2022/12/23 05:33:30;;;;;;;1.30;1.30;;;11.80;99.90;;;;;;5109193;28;20265;-85
2022/12/23 05:35:56;;;;;;;1.40;1.40;;;11.80;99.90;;;;;;5110490;28;20186;-84
2022/12/23 05:38:22;;;;;;;1.60;1.50;;;11.70;99.90;;;;;;5109229;28;20218;-88
2022/12/23 05:40:48;;;;;;;1.73;1.43;;;11.80;99.90;;;;;;5108608;28;20419;-86
2022/12/23 05:43:14;;;;;;;1.33;1.33;;;11.70;99.90;;;;;;5110242;28;20465;-87
2022/12/23 05:45:40;;;;;;;2.00;1.57;;;11.70;99.90;;;;;;5111215;28;20190;-85
2022/12/23 05:48:06;;;;;;;1.80;1.50;;;11.70;99.90;;;;;;5110648;28;20243;-87
2022/12/23 05:50:32;;;;;;;1.70;1.60;;;11.80;99.90;;;;;;5110820;28;20736;-88
2022/12/23 05:52:57;;;;;;;1.40;1.40;;;11.70;99.90;;;;;;5107603;28;20201;-86
2022/12/23 05:55:24;;;;;;;1.53;1.43;;;11.70;99.90;;;;;;5110026;28;20566;-87
2022/12/23 05:57:51;;;;;;;1.60;1.60;;;11.70;99.90;;;;;;5111186;28;20185;-85
2022/12/23 06:00:17;;;;;;;1.57;1.57;;;11.80;99.90;;;;;;5108566;28;20277;-84
2022/12/23 06:02:43;;;;;;;2.67;1.53;;;11.80;99.90;;;;;;5111071;28;20188;-86
2022/12/23 06:05:09;;;;;;;1.63;1.53;;;11.70;99.90;;;;;;5109932;28;20187;-87
2022/12/23 06:07:36;;;;;;;1.70;1.60;;;11.70;99.90;;;;;;5109493;28;20232;-87
2022/12/23 06:10:03;;;;;;;1.63;1.53;;;11.70;99.90;;;;;;5110793;28;20201;-87
2022/12/23 06:12:28;;;;;;;1.67;1.57;;;11.60;99.90;;;;;;5109809;28;20194;-89
2022/12/23 06:14:54;;;;;;;2.00;1.43;;;11.60;99.90;;;;;;5109068;28;20231;-85
2022/12/23 06:17:20;;;;;;;1.60;1.60;;;11.60;99.90;;;;;;5110698;28;20252;-85
2022/12/23 06:19:46;;;;;;;1.70;1.60;;;11.70;99.90;;;;;;5111354;28;20361;-87
2022/12/23 06:22:12;;;;;;;2.13;1.80;;;11.70;99.90;;;;;;5110530;28;20255;-88
2022/12/23 06:24:38;;;;;;;1.80;1.70;;;11.70;99.90;;;;;;5106500;28;20206;-88
2022/12/23 06:27:04;;;;;;;1.80;1.70;;;11.70;99.90;;;;;;5111143;28;20218;-84
2022/12/23 06:29:30;;;;;;;2.57;1.80;;;11.70;99.90;;;;;;5110093;28;20183;-88
2022/12/23 06:31:55;;;;;;;1.97;1.87;;;11.60;99.90;;;;;;5108769;28;20229;-87
2022/12/23 06:34:21;;;;;;;2.90;2.00;;;11.80;99.90;;;;;;5110041;28;20711;-86
2022/12/23 06:36:47;;;;;;;2.03;1.70;;;11.90;99.90;;;;;;5107985;28;20656;-88
2022/12/23 06:39:13;;;;;;;1.60;1.50;;;11.80;99.90;;;;;;5108281;28;20252;-85
2022/12/23 06:41:38;;;;;;;1.87;1.77;;;11.90;99.90;;;;;;5107557;28;20190;-86
2022/12/23 06:44:04;;;;;;;1.80;1.70;;;11.90;99.90;;;;;;5109630;28;20656;-87
2022/12/23 06:46:30;;;;;;;2.17;2.07;;;11.80;99.90;;;;;;5102535;28;20253;-88
2022/12/23 06:48:55;;;;;;;2.50;1.90;;;11.90;99.90;;;;;;5089377;28;20786;-89
2022/12/23 06:51:21;;;;;;;2.20;2.10;;;11.90;99.90;;;;;;5096019;28;20194;-86
2022/12/23 06:53:47;;;;;;;2.20;2.10;;;11.80;99.90;;;;;;5094355;28;20207;-86
2022/12/23 06:56:12;;;;;;;2.30;2.17;;;11.80;99.90;;;;;;5095870;28;20194;-87
2022/12/23 06:58:38;;;;;;;2.10;2.00;;;11.90;99.90;;;;;;5096710;28;20217;-86
2022/12/23 07:01:04;;;;;;;2.20;2.00;;;11.90;99.90;;;;;;5095401;28;20198;-88
2022/12/23 07:03:29;;;;;;;2.60;1.90;;;11.80;99.90;;;;;;5095935;28;20222;-88
2022/12/23 07:05:55;;;;;;;2.83;1.97;;;11.80;99.90;;;;;;5094653;28;20203;-87
2022/12/23 07:08:21;;;;;;;1.93;1.83;;;11.80;99.90;;;;;;5092680;28;20228;-87
2022/12/23 07:10:46;;;;;;;2.57;2.13;;;11.80;99.90;;;;;;5097919;28;20186;-87
2022/12/23 07:13:12;;;;;;;4.53;2.10;;;11.80;99.90;;;;;;5093697;28;20192;-87
2022/12/23 07:15:38;;;;;;;2.13;1.93;;;11.70;99.90;;;;;;5091598;28;20182;-87
2022/12/23 07:18:05;;;;;;;2.33;2.13;;;11.80;99.90;;;;;;5094138;28;20205;-88
2022/12/23 07:20:31;;;;;;;2.63;2.10;;;11.90;99.90;;;;;;5094867;28;20287;-88
2022/12/23 07:22:57;;;;;;;2.00;1.80;;;11.80;99.90;;;;;;5091863;28;20630;-88
2022/12/23 07:25:23;;;;;;;2.17;1.97;;;11.70;99.90;;;;;;5095670;28;20198;-89
2022/12/23 07:27:56;;;;;;;2.10;1.97;;;11.70;99.90;;;;;;5086471;28;20239;-88
2022/12/23 07:30:22;;;;;;;2.43;2.00;;;11.60;99.90;;;;;;5081271;28;20586;-86
2022/12/23 07:32:49;;;;;;;2.17;2.07;;;11.60;99.90;;;;;;5097044;28;20277;-87
2022/12/23 07:35:15;;;;;;;1.90;1.80;;;11.60;99.90;;;;;;5095160;28;20199;-86
2022/12/23 07:37:41;;;;;;;2.07;1.90;;;11.60;99.90;;;;;;5087449;28;20209;-88
2022/12/23 07:40:08;;;;;;;2.00;1.90;;;11.60;99.90;;;;;;5092465;28;20530;-89
2022/12/23 07:42:33;;;;;;;2.10;1.90;;;11.60;99.90;;;;;;5094400;28;20249;-87
2022/12/23 07:44:59;;;;;;;4.50;2.03;;;11.60;99.90;;;;;;5097030;28;20182;-87
2022/12/23 07:47:24;;;;;;;2.40;2.20;;;11.50;99.90;;;;;;5101859;28;20224;-88
2022/12/23 07:49:50;;;;;;;2.40;2.20;;;11.60;99.90;;;;;;5104021;28;20267;-87
2022/12/23 07:52:16;;;;;;;2.23;2.13;;;11.60;99.90;;;;;;5107956;28;20212;-85
2022/12/23 07:54:42;;;;;;;4.23;2.23;;;11.60;99.90;;;;;;5105368;28;20192;-85
2022/12/23 07:57:07;;;;;;;2.43;2.20;;;11.60;99.90;;;;;;5108680;28;20249;-85
2022/12/23 07:59:33;;;;;;;4.20;2.03;;;11.60;99.90;;;;;;5108069;28;20208;-88
2022/12/23 08:01:59;;;;;;;2.00;1.90;;;11.60;99.90;;;;;;5109905;28;20184;-85
2022/12/23 08:04:24;;;;;;;1.97;1.87;;;11.60;99.90;;;;;;5112773;28;20253;-86
2022/12/23 08:06:50;;;;;;;2.10;2.00;;;11.60;99.90;;;;;;5112753;28;20197;-83
2022/12/23 08:09:15;;;;;;;2.20;2.10;;;11.60;99.90;;;;;;5112394;28;20263;-84
2022/12/23 08:11:41;;;;;;;2.13;2.03;;;11.50;99.90;;;;;;5111896;28;20183;-85
2022/12/23 08:14:07;;;;;;;2.07;1.90;;;11.50;99.90;;;;;;5112664;28;20181;-86
2022/12/23 08:16:32;;;;;;;2.10;2.00;;;11.50;99.90;;;;;;5112063;28;20186;-85
2022/12/23 08:18:58;;;;;;;1.90;1.80;;;11.50;99.90;;;;;;5112626;28;20219;-85
2022/12/23 08:21:24;;;;;;;2.00;1.90;;;11.40;99.90;;;;;;5111559;28;20350;-86
2022/12/23 08:23:50;;;;;;;2.00;1.90;;;11.50;99.90;;;;;;5113113;28;20189;-86
2022/12/23 08:26:17;;;;;;;1.97;1.87;;;11.50;99.90;;;;;;5113347;28;20188;-84
2022/12/23 08:28:44;;;;;;;2.13;1.80;;;11.50;99.90;;;;;;5112888;28;20276;-86
2022/12/23 08:31:17;;;;;;;2.40;1.93;;;11.50;99.90;;;;;;5110735;28;20252;-85
2022/12/23 08:33:46;;;;;;;1.90;1.80;;;11.40;99.90;;;;;;5110180;28;20184;-86
2022/12/23 08:36:14;;;;;;;1.90;1.80;;;11.50;99.90;;;;;;5110998;28;20192;-84
2022/12/23 08:38:41;;;;;;;1.93;1.77;;;11.50;99.90;;;;;;5112342;28;20204;-85
2022/12/23 08:41:11;;;;;;;2.87;1.90;;;11.40;99.90;;;;;;5112290;28;20225;-86
2022/12/23 08:43:37;;;;;;;2.63;1.63;;;11.40;99.90;;;;;;5112272;28;20182;-88
2022/12/23 08:46:04;;;;;;;1.80;1.70;;;11.50;99.90;;;;;;5111973;28;20213;-87
2022/12/23 08:48:30;;;;;;;2.07;1.73;;;11.50;99.90;;;;;;5108046;28;20216;-84
2022/12/23 08:50:55;;;;;;;4.00;2.00;;;11.50;99.90;;;;;;5112066;28;20201;-84
2022/12/23 08:53:21;;;;;;;2.33;1.70;;;11.60;99.90;;;;;;5111194;28;20181;-84
2022/12/23 08:55:47;;;;;;;2.13;1.80;;;11.50;99.90;;;;;;5110889;28;20189;-85
2022/12/23 08:58:14;;;;;;;1.80;1.70;;;11.60;99.90;;;;;;5096212;28;20226;-87
2022/12/23 09:00:40;;;;;;;2.20;2.00;;;11.60;99.90;;;;;;5112273;28;20629;-86
2022/12/23 09:03:06;;;;;;;3.63;2.00;;;11.60;99.90;;;;;;5112554;28;20181;-86
2022/12/23 09:05:33;;;;;;;3.17;2.03;;;11.50;99.90;;;;;;5113149;28;20196;-85
2022/12/23 09:07:58;;;;;;;3.13;2.30;;;11.50;99.90;;;;;;5114074;28;20210;-84
2022/12/23 09:10:24;;;;;;;1.97;1.87;;;11.50;99.90;;;;;;5112469;28;20193;-90
2022/12/23 09:12:50;;;;;;;2.10;2.00;;;11.40;99.90;;;;;;5118650;28;20194;-85
2022/12/23 09:15:16;;;;;;;2.37;2.17;;;11.50;99.90;;;;;;5111267;28;20198;-83
2022/12/23 09:17:43;;;;;;;3.10;2.33;;;11.50;99.90;;;;;;5112655;28;20189;-84
2022/12/23 09:20:09;;;;;;;2.60;2.40;;;11.50;99.90;;;;;;5110220;28;20213;-83
2022/12/23 09:22:35;;;;;;;2.70;2.50;;;11.40;99.90;;;;;;5105692;28;20475;-84
2022/12/23 09:25:01;;;;;;;2.43;2.33;;;11.50;99.90;;;;;;5106187;28;20246;-84
2022/12/23 09:27:26;;;;;;;2.33;2.23;;;11.50;99.90;;;;;;5105404;28;20212;-84
2022/12/23 09:29:52;;;;;;;6.37;2.50;;;11.70;99.90;;;;;;5104133;28;20202;-87
2022/12/23 09:32:18;;;;;;;2.67;2.47;;;11.70;99.90;;;;;;5100119;28;20253;-86
2022/12/23 09:34:44;;;;;;;2.00;1.90;;;11.70;99.90;;;;;;5102314;28;20691;-86
2022/12/23 09:37:11;;;;;;;2.17;2.07;;;11.70;99.90;;;;;;5103542;28;20204;-85
2022/12/23 09:39:37;;;;;;;2.57;2.30;;;11.70;99.90;;;;;;5104755;28;20210;-85
2022/12/23 09:42:44;;;;;;;2.00;1.90;;;11.80;99.90;;;;;;5103035;28;20200;-85
2022/12/23 09:45:43;;;;;;;2.37;2.20;;;11.70;99.90;;;;;;5106189;28;20186;-87
2022/12/23 09:48:15;;;;;;;2.63;2.00;;;11.80;99.90;;;;;;5106879;28;20305;-83
2022/12/23 09:50:42;;;;;;;2.90;2.03;;;11.90;99.90;;;;;;5105347;28;20206;-88
2022/12/23 09:53:14;;;;;;;1.80;1.70;;;12.00;99.90;;;;;;5107933;28;20212;-86
2022/12/23 09:55:56;;;;;;;1.93;1.83;;;12.00;99.90;;;;;;5110165;28;20194;-88
2022/12/23 09:58:41;;;;;;;1.90;1.80;;;12.10;99.90;;;;;;5108840;28;20221;-86
2022/12/23 10:01:17;;;;;;;2.70;1.93;;;12.00;99.90;;;;;;5111462;28;20174;-88
2022/12/23 10:03:59;;;;;;;2.53;1.90;;;12.10;99.90;;;;;;5111664;28;20178;-83
2022/12/23 10:06:28;;;;;;;3.50;3.20;;;12.10;99.90;;;;;;5110895;28;20182;-86
2022/12/23 10:09:03;;;;;;;2.40;2.20;;;12.10;99.90;;;;;;5109981;28;20214;-85
2022/12/23 10:11:36;;;;;;;1.93;1.83;;;12.10;99.90;;;;;;5109838;28;20204;-88
2022/12/23 10:14:15;;;;;;;2.37;1.83;;;12.10;99.90;;;;;;5111505;28;20182;-85
2022/12/23 10:16:44;;;;;;;2.03;1.93;;;12.00;99.90;;;;;;5108065;28;20170;-86
2022/12/23 10:19:22;;;;;;;2.00;1.90;;;12.00;99.90;;;;;;5110763;28;20214;-88
2022/12/23 10:22:03;;;;;;;1.80;1.70;;;12.10;99.90;;;;;;5109141;28;20228;-87
2022/12/23 10:24:38;;;;;;;2.00;1.80;;;12.00;99.90;;;;;;5096648;28;20187;-88
2022/12/23 10:27:24;;;;;;;1.77;1.67;;;12.10;99.90;;;;;;5108343;28;20232;-89
2022/12/23 10:29:50;;;;;;;1.90;1.80;;;12.10;99.90;;;;;;5109804;28;20243;-87
2022/12/23 10:32:16;;;;;;;3.13;2.17;;;12.10;99.90;;;;;;5110868;28;20174;-87
2022/12/23 10:35:00;;;;;;;2.00;1.90;;;12.10;99.90;;;;;;5111044;28;20190;-85
2022/12/23 10:37:45;;;;;;;2.17;2.07;;;12.00;99.90;;;;;;5111745;28;20197;-86
2022/12/23 10:40:22;;;;;;;3.83;1.90;;;12.00;99.90;;;;;;5109245;28;20201;-85
2022/12/23 10:43:09;;;;;;;2.37;2.20;;;12.00;99.90;;;;;;5111541;28;20193;-86
2022/12/23 10:45:56;;;;;;;2.33;2.13;;;12.00;99.90;;;;;;5109815;28;20208;-86
2022/12/23 10:48:46;;;;;;;2.50;2.20;;;12.10;99.90;;;;;;5101768;28;20205;-87
2022/12/23 10:51:14;;;;;;;2.53;2.30;;;12.10;99.90;;;;;;5110563;28;20261;-83
2022/12/23 10:54:07;;;;;;;2.30;2.10;;;12.30;99.90;;;;;;5107294;28;20186;-86
2022/12/23 10:56:33;;;;;;;2.97;2.30;;;12.30;99.90;;;;;;5108797;28;20166;-87
2022/12/23 10:59:00;;;;;;;2.50;2.30;;;12.20;99.90;;;;;;5109821;28;20223;-86
2022/12/23 11:01:28;;;;;;;2.27;2.10;;;12.30;99.90;;;;;;5109443;28;20194;-86
2022/12/23 11:04:26;;;;;;;2.53;2.33;;;12.40;99.90;;;;;;5106035;28;20219;-85
2022/12/23 11:06:54;;;;;;;2.10;2.00;;;12.40;99.90;;;;;;5111965;28;20778;-87
2022/12/23 11:09:23;;;;;;;3.60;2.10;;;12.40;99.90;;;;;;5111509;28;20204;-87
2022/12/23 11:11:55;;;;;;;2.20;2.00;;;12.40;99.90;;;;;;5104895;28;20178;-86
2022/12/23 11:14:38;;;;;;;2.33;2.10;;;12.40;99.90;;;;;;5110631;28;20253;-87
2022/12/23 11:17:16;;;;;;;3.50;2.20;;;12.40;99.90;;;;;;5102992;28;20213;-85
2022/12/23 11:19:42;;;;;;;2.53;2.13;;;12.30;99.90;;;;;;5110501;28;20210;-88
2022/12/23 11:22:23;;;;;;;2.20;2.03;;;12.40;99.90;;;;;;5087836;28;20205;-87
2022/12/23 11:24:49;;;;;;;2.60;2.40;;;12.40;99.90;;;;;;5108594;28;20227;-88
2022/12/23 11:27:15;;;;;;;3.07;2.20;;;12.40;99.90;;;;;;5108726;28;20209;-83
2022/12/23 11:29:50;;;;;;;2.30;2.10;;;12.30;99.90;;;;;;5109511;28;20213;-87
2022/12/23 11:32:19;;;;;;;1.90;1.80;;;12.40;99.90;;;;;;5110945;28;20178;-86
2022/12/23 11:34:47;;;;;;;2.37;2.17;;;12.40;99.90;;;;;;5109363;28;20221;-87
2022/12/23 11:37:30;;;;;;;3.97;2.67;;;12.40;99.90;;;;;;5114697;28;20186;-85
2022/12/23 11:39:56;;;;;;;2.40;2.30;;;12.40;99.90;;;;;;5103889;28;20213;-88
2022/12/23 11:42:29;;;;;;;3.07;2.40;;;12.50;99.90;;;;;;5112057;28;20219;-86
2022/12/23 11:44:57;;;;;;;2.50;2.30;;;12.40;99.90;;;;;;5113020;28;20183;-87
2022/12/23 11:47:37;;;;;;;2.60;2.40;;;12.50;99.90;;;;;;5115652;28;20207;-86
2022/12/23 11:50:29;;;;;;;2.77;2.57;;;12.50;99.90;;;;;;5112388;28;20187;-86
2022/12/23 11:53:13;;;;;;;2.20;2.10;;;12.60;99.90;;;;;;5114638;28;20159;-88
2022/12/23 11:56:02;;;;;;;2.23;2.03;;;12.60;99.90;;;;;;5115402;28;20245;-86
2022/12/23 11:58:29;;;;;;;1.97;1.87;;;12.60;99.90;;;;;;5111539;28;20175;-89
2022/12/23 12:01:05;;;;;;;2.00;1.63;;;12.70;99.90;;;;;;5114418;28;20195;-87
2022/12/23 12:03:34;;;;;;;3.93;1.87;;;12.70;99.90;;;;;;5115175;28;20209;-85
2022/12/23 12:06:04;;;;;;;1.60;1.60;;;12.60;99.90;;;;;;5114855;28;20265;-87
2022/12/23 12:08:36;;;;;;;2.27;2.07;;;12.70;99.90;;;;;;5115737;28;20284;-86
2022/12/23 12:11:12;;;;;;;1.90;1.80;;;12.70;99.90;;;;;;5115606;28;20186;-88
2022/12/23 12:13:41;;;;;;;4.27;1.93;;;12.70;99.90;;;;;;5114412;28;20312;-85
2022/12/23 12:16:44;;;;;;;6.30;3.00;;;12.70;99.90;;;;;;5114316;28;20182;-83
2022/12/23 12:19:19;;;;;;;2.40;2.30;;;12.70;99.90;;;;;;5088253;28;20308;-86
2022/12/23 12:21:48;;;;;;;2.00;1.90;;;12.60;99.90;;;;;;5113071;28;20207;-84
2022/12/23 12:24:26;;;;;;;3.83;2.30;;;12.70;99.90;;;;;;5096512;28;20197;-84
2022/12/23 12:26:56;;;;;;;2.60;2.40;;;12.70;99.90;;;;;;5113195;28;20166;-87
2022/12/23 12:29:43;;;;;;;2.30;2.10;;;12.80;99.90;;;;;;5113783;28;20207;-86
2022/12/23 12:32:35;;;;;;;2.40;2.30;;;12.70;99.90;;;;;;5108938;28;20205;-86
2022/12/23 12:35:53;;;;;;;2.80;2.57;;;12.70;99.90;;;;;;5089415;28;20210;-84
2022/12/23 12:38:32;;;;;;;2.33;2.23;;;12.70;99.90;;;;;;5093264;28;20213;-86
2022/12/23 12:41:10;;;;;;;2.50;2.30;;;12.70;99.90;;;;;;5095181;28;20193;-85
2022/12/23 12:43:55;;;;;;;3.03;2.67;;;12.80;99.90;;;;;;5109986;28;20194;-85
2022/12/23 12:46:31;;;;;;;2.40;2.20;;;12.80;99.90;;;;;;5110080;28;20615;-86
2022/12/23 12:49:30;;;;;;;4.73;2.70;;;12.90;99.90;;;;;;5110958;28;20210;-84
2022/12/23 12:52:18;;;;;;;2.70;2.50;;;12.80;99.90;;;;;;5110801;28;20303;-86
2022/12/23 12:54:58;;;;;;;3.07;2.53;;;12.80;99.90;;;;;;5111012;28;20240;-87
2022/12/23 12:57:24;;;;;;;3.83;2.37;;;12.90;99.90;;;;;;5111093;28;20193;-87
2022/12/23 12:59:56;;;;;;;2.53;2.33;;;12.90;99.90;;;;;;5094802;28;20214;-83
2022/12/23 13:02:47;;;;;;;2.63;2.43;;;12.90;99.90;;;;;;5111912;28;20212;-86
2022/12/23 13:05:32;;;;;;;2.60;2.40;;;12.90;99.90;;;;;;5111121;28;20217;-87
2022/12/23 13:08:22;;;;;;;2.00;1.90;;;12.90;99.90;;;;;;5108479;28;20210;-86
2022/12/23 13:11:02;;;;;;;2.17;2.07;;;13.00;99.90;;;;;;5110461;28;20191;-83
2022/12/23 13:13:27;;;;;;;2.23;2.13;;;13.00;99.90;;;;;;5106840;28;20191;-84
2022/12/23 13:16:21;;;;;;;2.53;2.33;;;12.90;99.90;;;;;;5107278;28;20195;-84
2022/12/23 13:18:58;;;;;;;2.33;2.20;;;13.00;99.90;;;;;;5106929;28;20331;-86
2022/12/23 13:21:39;;;;;;;2.30;2.10;;;13.00;99.90;;;;;;5107100;28;20296;-85
2022/12/23 13:24:20;;;;;;;2.53;2.10;;;13.00;99.90;;;;;;5104080;28;20201;-83
2022/12/23 13:26:58;;;;;;;2.30;2.17;;;13.00;99.90;;;;;;5107453;28;20186;-84
2022/12/23 13:29:58;;;;;;;2.10;2.00;;;13.10;99.90;;;;;;5110556;28;20232;-84
2022/12/23 13:32:32;;;;;;;2.37;1.83;;;13.10;99.90;;;;;;5105640;28;20182;-86
2022/12/23 13:35:17;;;;;;;2.20;1.90;;;13.10;99.90;;;;;;5110412;28;20198;-86
2022/12/23 13:37:57;;;;;;;2.10;2.00;;;13.20;99.90;;;;;;5110545;28;20198;-86